sensor_id;sensor_type;location;lat;lon;timestamp;pressure;altitude;pressure_sealevel;temperature;humidity
43298;BME280;28892;55.640;37.532;2023-03-25T00:01:05;97585.22;;;6.51;68.01
43298;BME280;28892;55.640;37.532;2023-03-25T00:03:34;97576.91;;;6.54;67.92
43298;BME280;28892;55.640;37.532;2023-03-25T00:06:06;97579.84;;;6.80;67.22
43298;BME280;28892;55.640;37.532;2023-03-25T00:08:35;97566.94;;;7.05;65.95
43298;BME280;28892;55.640;37.532;2023-03-25T00:11:03;97575.28;;;7.16;66.05
43298;BME280;28892;55.640;37.532;2023-03-25T00:13:30;97570.09;;;6.80;67.05
43298;BME280;28892;55.640;37.532;2023-03-25T00:15:59;97578.25;;;6.92;66.83
43298;BME280;28892;55.640;37.532;2023-03-25T00:18:28;97564.47;;;6.83;66.92
43298;BME280;28892;55.640;37.532;2023-03-25T00:21:03;97563.69;;;6.41;69.03
43298;BME280;28892;55.640;37.532;2023-03-25T00:23:30;97555.88;;;6.61;67.94
43298;BME280;28892;55.640;37.532;2023-03-25T00:25:56;97546.72;;;6.50;68.31
43298;BME280;28892;55.640;37.532;2023-03-25T00:28:30;97552.81;;;6.57;67.78
43298;BME280;28892;55.640;37.532;2023-03-25T00:31:01;97537.50;;;5.91;70.63
43298;BME280;28892;55.640;37.532;2023-03-25T00:33:27;97531.13;;;5.50;72.51
43298;BME280;28892;55.640;37.532;2023-03-25T00:35:53;97533.47;;;5.38;72.39
43298;BME280;28892;55.640;37.532;2023-03-25T00:38:25;97526.56;;;5.58;72.71
43298;BME280;28892;55.640;37.532;2023-03-25T00:41:16;97517.59;;;5.81;71.92
43298;BME280;28892;55.640;37.532;2023-03-25T00:43:43;97517.16;;;5.78;71.45
43298;BME280;28892;55.640;37.532;2023-03-25T00:46:09;97524.91;;;5.86;71.03
43298;BME280;28892;55.640;37.532;2023-03-25T00:48:35;97525.50;;;5.53;72.24
43298;BME280;28892;55.640;37.532;2023-03-25T00:51:02;97521.34;;;5.37;73.49
43298;BME280;28892;55.640;37.532;2023-03-25T00:53:32;97523.00;;;5.44;73.15
43298;BME280;28892;55.640;37.532;2023-03-25T00:56:00;97511.47;;;5.74;72.54
43298;BME280;28892;55.640;37.532;2023-03-25T00:58:28;97511.97;;;5.27;73.17
43298;BME280;28892;55.640;37.532;2023-03-25T01:00:54;97513.16;;;5.53;73.06
43298;BME280;28892;55.640;37.532;2023-03-25T01:03:25;97521.56;;;5.42;73.20
43298;BME280;28892;55.640;37.532;2023-03-25T01:05:53;97512.13;;;5.83;72.00
43298;BME280;28892;55.640;37.532;2023-03-25T01:08:22;97510.03;;;5.43;73.16
43298;BME280;28892;55.640;37.532;2023-03-25T01:10:54;97485.31;;;5.37;73.34
43298;BME280;28892;55.640;37.532;2023-03-25T01:13:21;97497.50;;;5.73;72.32
43298;BME280;28892;55.640;37.532;2023-03-25T01:15:49;97494.09;;;5.80;71.79
43298;BME280;28892;55.640;37.532;2023-03-25T01:18:15;97495.50;;;5.76;72.34
43298;BME280;28892;55.640;37.532;2023-03-25T01:20:41;97489.81;;;5.72;72.24
43298;BME280;28892;55.640;37.532;2023-03-25T01:23:07;97502.63;;;5.88;71.51
43298;BME280;28892;55.640;37.532;2023-03-25T01:25:36;97496.88;;;6.07;71.36
43298;BME280;28892;55.640;37.532;2023-03-25T01:28:03;97491.47;;;6.15;70.77
43298;BME280;28892;55.640;37.532;2023-03-25T01:30:29;97493.16;;;5.94;71.31
43298;BME280;28892;55.640;37.532;2023-03-25T01:32:55;97477.91;;;5.83;71.82
43298;BME280;28892;55.640;37.532;2023-03-25T01:35:21;97474.13;;;5.57;72.80
43298;BME280;28892;55.640;37.532;2023-03-25T01:37:47;97478.00;;;5.96;71.83
43298;BME280;28892;55.640;37.532;2023-03-25T01:40:19;97466.75;;;5.74;72.83
43298;BME280;28892;55.640;37.532;2023-03-25T01:42:45;97461.31;;;5.76;72.21
43298;BME280;28892;55.640;37.532;2023-03-25T01:45:17;97464.38;;;5.86;72.50
43298;BME280;28892;55.640;37.532;2023-03-25T01:47:46;97465.78;;;5.82;71.88
43298;BME280;28892;55.640;37.532;2023-03-25T01:50:12;97454.97;;;6.05;71.47
43298;BME280;28892;55.640;37.532;2023-03-25T01:52:43;97446.25;;;6.05;71.82
43298;BME280;28892;55.640;37.532;2023-03-25T01:55:10;97440.50;;;5.87;71.96
43298;BME280;28892;55.640;37.532;2023-03-25T01:57:39;97438.19;;;6.06;71.56
43298;BME280;28892;55.640;37.532;2023-03-25T02:00:09;97424.72;;;5.94;71.87
43298;BME280;28892;55.640;37.532;2023-03-25T02:02:38;97417.34;;;5.69;72.93
43298;BME280;28892;55.640;37.532;2023-03-25T02:07:55;97444.47;;;6.12;71.14
43298;BME280;28892;55.640;37.532;2023-03-25T02:10:22;97430.19;;;5.86;71.67
43298;BME280;28892;55.640;37.532;2023-03-25T02:12:48;97421.63;;;5.77;72.75
43298;BME280;28892;55.640;37.532;2023-03-25T02:15:16;97423.97;;;6.00;71.88
43298;BME280;28892;55.640;37.532;2023-03-25T02:46:40;97372.50;;;5.91;72.84
43298;BME280;28892;55.640;37.532;2023-03-25T02:49:16;97373.22;;;6.27;71.56
43298;BME280;28892;55.640;37.532;2023-03-25T02:51:53;97368.81;;;6.41;70.66
43298;BME280;28892;55.640;37.532;2023-03-25T02:54:23;97371.59;;;5.70;73.36
43298;BME280;28892;55.640;37.532;2023-03-25T02:56:52;97355.75;;;6.06;72.51
43298;BME280;28892;55.640;37.532;2023-03-25T02:59:23;97361.91;;;6.40;71.04
43298;BME280;28892;55.640;37.532;2023-03-25T03:01:59;97348.88;;;6.11;71.91
43298;BME280;28892;55.640;37.532;2023-03-25T03:04:28;97358.88;;;6.29;71.58
43298;BME280;28892;55.640;37.532;2023-03-25T03:06:55;97352.53;;;6.10;72.47
43298;BME280;28892;55.640;37.532;2023-03-25T03:09:37;97334.56;;;6.48;71.66
43298;BME280;28892;55.640;37.532;2023-03-25T03:17:41;97336.59;;;6.59;70.65
43298;BME280;28892;55.640;37.532;2023-03-25T03:31:02;97315.44;;;7.13;69.28
43298;BME280;28892;55.640;37.532;2023-03-25T03:33:40;97313.25;;;7.10;69.44
43298;BME280;28892;55.640;37.532;2023-03-25T03:36:10;97299.53;;;6.67;70.90
43298;BME280;28892;55.640;37.532;2023-03-25T03:38:48;97311.28;;;6.51;71.67
43298;BME280;28892;55.640;37.532;2023-03-25T03:41:18;97288.16;;;6.26;72.27
43298;BME280;28892;55.640;37.532;2023-03-25T03:43:49;97290.19;;;6.58;72.02
43298;BME280;28892;55.640;37.532;2023-03-25T03:46:22;97289.78;;;6.21;73.31
43298;BME280;28892;55.640;37.532;2023-03-25T03:48:54;97293.66;;;6.32;73.02
43298;BME280;28892;55.640;37.532;2023-03-25T03:51:30;97295.25;;;6.26;73.28
43298;BME280;28892;55.640;37.532;2023-03-25T03:54:18;97267.31;;;6.38;72.63
43298;BME280;28892;55.640;37.532;2023-03-25T03:57:07;97265.28;;;6.47;72.63
43298;BME280;28892;55.640;37.532;2023-03-25T04:02:46;97269.72;;;6.53;72.74
43298;BME280;28892;55.640;37.532;2023-03-25T04:05:16;97253.88;;;6.94;71.42
43298;BME280;28892;55.640;37.532;2023-03-25T04:07:58;97247.91;;;7.12;70.81
43298;BME280;28892;55.640;37.532;2023-03-25T04:10:39;97247.22;;;6.78;71.36
43298;BME280;28892;55.640;37.532;2023-03-25T04:13:12;97245.81;;;6.68;72.03
43298;BME280;28892;55.640;37.532;2023-03-25T04:15:39;97251.47;;;6.72;71.76
43298;BME280;28892;55.640;37.532;2023-03-25T04:18:05;97235.91;;;6.57;72.29
43298;BME280;28892;55.640;37.532;2023-03-25T04:20:32;97218.69;;;6.27;72.99
43298;BME280;28892;55.640;37.532;2023-03-25T04:22:59;97225.31;;;6.77;71.65
43298;BME280;28892;55.640;37.532;2023-03-25T04:25:25;97224.25;;;6.92;71.20
43298;BME280;28892;55.640;37.532;2023-03-25T04:27:52;97212.75;;;6.73;71.71
43298;BME280;28892;55.640;37.532;2023-03-25T04:30:27;97225.69;;;6.88;71.53
43298;BME280;28892;55.640;37.532;2023-03-25T04:32:53;97214.91;;;6.96;71.16
43298;BME280;28892;55.640;37.532;2023-03-25T04:35:19;97229.31;;;7.46;69.33
43298;BME280;28892;55.640;37.532;2023-03-25T04:37:45;97211.38;;;7.61;69.01
43298;BME280;28892;55.640;37.532;2023-03-25T04:40:14;97213.81;;;7.56;68.24
43298;BME280;28892;55.640;37.532;2023-03-25T04:42:44;97212.56;;;7.26;69.68
43298;BME280;28892;55.640;37.532;2023-03-25T04:45:12;97205.91;;;7.17;70.41
43298;BME280;28892;55.640;37.532;2023-03-25T04:47:44;97178.97;;;7.47;68.95
43298;BME280;28892;55.640;37.532;2023-03-25T04:50:21;97183.19;;;7.55;69.06
43298;BME280;28892;55.640;37.532;2023-03-25T04:52:51;97193.72;;;7.23;70.48
43298;BME280;28892;55.640;37.532;2023-03-25T04:55:18;97197.25;;;7.03;70.49
43298;BME280;28892;55.640;37.532;2023-03-25T04:57:46;97188.84;;;7.26;69.64
43298;BME280;28892;55.640;37.532;2023-03-25T05:00:15;97167.00;;;7.12;70.86
43298;BME280;28892;55.640;37.532;2023-03-25T05:02:46;97176.69;;;7.58;69.39
43298;BME280;28892;55.640;37.532;2023-03-25T05:05:14;97173.41;;;7.62;68.93
43298;BME280;28892;55.640;37.532;2023-03-25T05:07:47;97175.25;;;7.23;70.34
43298;BME280;28892;55.640;37.532;2023-03-25T05:10:15;97159.00;;;7.65;69.03
43298;BME280;28892;55.640;37.532;2023-03-25T05:12:41;97166.72;;;7.60;69.25
43298;BME280;28892;55.640;37.532;2023-03-25T05:15:09;97159.78;;;6.94;71.46
43298;BME280;28892;55.640;37.532;2023-03-25T05:17:37;97178.44;;;6.86;71.85
43298;BME280;28892;55.640;37.532;2023-03-25T05:20:04;97172.22;;;6.74;73.20
43298;BME280;28892;55.640;37.532;2023-03-25T05:22:33;97171.19;;;7.20;71.62
43298;BME280;28892;55.640;37.532;2023-03-25T05:24:59;97168.22;;;7.49;70.23
43298;BME280;28892;55.640;37.532;2023-03-25T05:27:31;97178.41;;;6.99;71.62
43298;BME280;28892;55.640;37.532;2023-03-25T05:29:57;97162.09;;;7.16;71.78
43298;BME280;28892;55.640;37.532;2023-03-25T05:32:26;97172.78;;;7.35;71.43
43298;BME280;28892;55.640;37.532;2023-03-25T05:34:55;97172.28;;;7.77;69.88
43298;BME280;28892;55.640;37.532;2023-03-25T05:37:21;97176.09;;;7.55;69.78
43298;BME280;28892;55.640;37.532;2023-03-25T05:39:47;97173.53;;;7.42;70.94
43298;BME280;28892;55.640;37.532;2023-03-25T05:42:16;97165.94;;;7.20;71.96
43298;BME280;28892;55.640;37.532;2023-03-25T05:44:42;97153.44;;;7.02;72.80
43298;BME280;28892;55.640;37.532;2023-03-25T05:47:23;97159.97;;;6.93;72.62
43298;BME280;28892;55.640;37.532;2023-03-25T05:49:51;97138.09;;;6.92;73.22
43298;BME280;28892;55.640;37.532;2023-03-25T05:52:31;97154.03;;;7.11;72.64
43298;BME280;28892;55.640;37.532;2023-03-25T05:55:05;97153.91;;;7.31;72.43
43298;BME280;28892;55.640;37.532;2023-03-25T05:57:33;97146.53;;;7.08;72.96
43298;BME280;28892;55.640;37.532;2023-03-25T05:59:59;97153.72;;;6.94;73.43
43298;BME280;28892;55.640;37.532;2023-03-25T06:02:28;97151.91;;;7.26;72.83
43298;BME280;28892;55.640;37.532;2023-03-25T06:04:57;97157.09;;;7.01;73.60
43298;BME280;28892;55.640;37.532;2023-03-25T06:07:23;97173.56;;;6.90;74.11
43298;BME280;28892;55.640;37.532;2023-03-25T06:09:50;97149.78;;;7.10;73.67
43298;BME280;28892;55.640;37.532;2023-03-25T06:12:22;97144.50;;;7.42;73.08
43298;BME280;28892;55.640;37.532;2023-03-25T06:14:48;97155.72;;;7.37;72.43
43298;BME280;28892;55.640;37.532;2023-03-25T06:17:19;97148.84;;;7.62;72.84
43298;BME280;28892;55.640;37.532;2023-03-25T06:19:50;97150.78;;;7.99;71.16
43298;BME280;28892;55.640;37.532;2023-03-25T06:22:18;97122.91;;;7.84;71.90
43298;BME280;28892;55.640;37.532;2023-03-25T06:24:50;97152.31;;;7.62;72.35
43298;BME280;28892;55.640;37.532;2023-03-25T06:27:18;97148.91;;;8.06;71.90
43298;BME280;28892;55.640;37.532;2023-03-25T06:29:44;97143.22;;;8.53;70.12
43298;BME280;28892;55.640;37.532;2023-03-25T06:32:12;97129.31;;;8.95;68.71
43298;BME280;28892;55.640;37.532;2023-03-25T06:34:38;97144.22;;;9.20;67.90
43298;BME280;28892;55.640;37.532;2023-03-25T06:37:08;97137.03;;;9.27;67.39
43298;BME280;28892;55.640;37.532;2023-03-25T06:39:34;97151.59;;;9.18;67.57
43298;BME280;28892;55.640;37.532;2023-03-25T06:42:11;97136.56;;;9.00;67.77
43298;BME280;28892;55.640;37.532;2023-03-25T06:44:50;97140.16;;;8.87;68.38
43298;BME280;28892;55.640;37.532;2023-03-25T06:47:26;97153.47;;;8.80;69.14
43298;BME280;28892;55.640;37.532;2023-03-25T06:49:52;97128.44;;;9.13;68.03
43298;BME280;28892;55.640;37.532;2023-03-25T06:52:19;97139.22;;;9.30;68.16
43298;BME280;28892;55.640;37.532;2023-03-25T06:54:44;97137.66;;;9.41;67.81
43298;BME280;28892;55.640;37.532;2023-03-25T06:57:10;97134.63;;;9.38;67.85
43298;BME280;28892;55.640;37.532;2023-03-25T06:59:36;97133.84;;;9.06;69.43
43298;BME280;28892;55.640;37.532;2023-03-25T07:02:01;97133.56;;;8.77;70.75
43298;BME280;28892;55.640;37.532;2023-03-25T07:04:27;97139.84;;;8.64;71.43
43298;BME280;28892;55.640;37.532;2023-03-25T07:06:53;97135.63;;;8.75;71.18
43298;BME280;28892;55.640;37.532;2023-03-25T07:09:19;97137.28;;;9.07;70.24
43298;BME280;28892;55.640;37.532;2023-03-25T07:11:44;97125.41;;;9.28;69.14
43298;BME280;28892;55.640;37.532;2023-03-25T07:14:10;97137.19;;;9.44;69.07
43298;BME280;28892;55.640;37.532;2023-03-25T07:16:36;97127.19;;;9.46;68.57
43298;BME280;28892;55.640;37.532;2023-03-25T07:19:01;97127.41;;;9.45;68.59
43298;BME280;28892;55.640;37.532;2023-03-25T07:21:27;97121.22;;;9.51;68.85
43298;BME280;28892;55.640;37.532;2023-03-25T07:23:53;97130.34;;;9.67;68.17
43298;BME280;28892;55.640;37.532;2023-03-25T07:26:19;97115.44;;;9.42;68.69
43298;BME280;28892;55.640;37.532;2023-03-25T07:28:45;97122.72;;;9.59;68.85
43298;BME280;28892;55.640;37.532;2023-03-25T07:31:13;97133.09;;;9.60;68.88
43298;BME280;28892;55.640;37.532;2023-03-25T07:33:40;97123.41;;;9.54;68.63
43298;BME280;28892;55.640;37.532;2023-03-25T07:36:07;97124.94;;;9.74;68.41
43298;BME280;28892;55.640;37.532;2023-03-25T07:38:35;97121.84;;;9.77;68.05
43298;BME280;28892;55.640;37.532;2023-03-25T07:41:09;97124.72;;;9.87;68.15
43298;BME280;28892;55.640;37.532;2023-03-25T07:43:36;97124.03;;;9.80;68.09
43298;BME280;28892;55.640;37.532;2023-03-25T07:46:22;97118.28;;;9.95;67.53
43298;BME280;28892;55.640;37.532;2023-03-25T07:48:48;97125.41;;;9.95;67.75
43298;BME280;28892;55.640;37.532;2023-03-25T07:51:13;97128.53;;;9.91;67.78
43298;BME280;28892;55.640;37.532;2023-03-25T07:53:39;97132.31;;;9.84;68.22
43298;BME280;28892;55.640;37.532;2023-03-25T07:56:09;97123.59;;;9.41;69.71
43298;BME280;28892;55.640;37.532;2023-03-25T07:58:36;97131.34;;;9.54;69.67
43298;BME280;28892;55.640;37.532;2023-03-25T08:01:02;97129.97;;;9.63;69.53
43298;BME280;28892;55.640;37.532;2023-03-25T08:03:28;97136.13;;;9.76;69.36
43298;BME280;28892;55.640;37.532;2023-03-25T08:05:54;97143.50;;;9.86;68.94
43298;BME280;28892;55.640;37.532;2023-03-25T08:08:20;97129.91;;;9.82;68.85
43298;BME280;28892;55.640;37.532;2023-03-25T08:10:46;97132.31;;;9.96;68.59
43298;BME280;28892;55.640;37.532;2023-03-25T08:13:13;97146.59;;;9.95;68.38
43298;BME280;28892;55.640;37.532;2023-03-25T08:15:39;97142.91;;;9.96;68.24
43298;BME280;28892;55.640;37.532;2023-03-25T08:18:05;97160.41;;;9.97;68.24
43298;BME280;28892;55.640;37.532;2023-03-25T08:20:32;97161.34;;;9.90;68.71
43298;BME280;28892;55.640;37.532;2023-03-25T08:22:58;97144.13;;;9.57;69.93
43298;BME280;28892;55.640;37.532;2023-03-25T08:25:25;97160.59;;;9.59;70.26
43298;BME280;28892;55.640;37.532;2023-03-25T08:27:51;97156.91;;;9.60;70.25
43298;BME280;28892;55.640;37.532;2023-03-25T08:30:18;97162.50;;;9.52;70.65
43298;BME280;28892;55.640;37.532;2023-03-25T08:32:48;97154.41;;;9.66;70.45
43298;BME280;28892;55.640;37.532;2023-03-25T08:35:20;97171.66;;;9.68;70.43
43298;BME280;28892;55.640;37.532;2023-03-25T08:37:47;97158.41;;;9.68;70.43
43298;BME280;28892;55.640;37.532;2023-03-25T08:40:15;97150.38;;;9.75;70.71
43298;BME280;28892;55.640;37.532;2023-03-25T08:42:44;97162.72;;;9.81;69.90
43298;BME280;28892;55.640;37.532;2023-03-25T08:45:11;97158.81;;;9.84;69.97
43298;BME280;28892;55.640;37.532;2023-03-25T08:47:38;97160.75;;;10.00;69.47
43298;BME280;28892;55.640;37.532;2023-03-25T08:50:04;97176.22;;;10.03;69.50
43298;BME280;28892;55.640;37.532;2023-03-25T08:52:30;97162.84;;;9.98;69.68
43298;BME280;28892;55.640;37.532;2023-03-25T08:54:56;97148.91;;;9.79;70.14
43298;BME280;28892;55.640;37.532;2023-03-25T08:57:22;97161.66;;;9.82;70.21
43298;BME280;28892;55.640;37.532;2023-03-25T08:59:48;97169.75;;;9.87;69.99
43298;BME280;28892;55.640;37.532;2023-03-25T09:02:14;97173.19;;;9.88;70.20
43298;BME280;28892;55.640;37.532;2023-03-25T09:04:40;97166.75;;;9.84;70.10
43298;BME280;28892;55.640;37.532;2023-03-25T09:07:06;97163.59;;;9.75;71.12
43298;BME280;28892;55.640;37.532;2023-03-25T09:09:43;97151.66;;;9.72;71.14
43298;BME280;28892;55.640;37.532;2023-03-25T09:12:09;97156.03;;;9.90;70.08
43298;BME280;28892;55.640;37.532;2023-03-25T09:14:37;97148.75;;;9.62;71.42
43298;BME280;28892;55.640;37.532;2023-03-25T09:17:03;97152.78;;;9.76;71.17
43298;BME280;28892;55.640;37.532;2023-03-25T09:19:33;97159.06;;;9.94;71.08
43298;BME280;28892;55.640;37.532;2023-03-25T09:22:05;97151.44;;;9.86;70.99
43298;BME280;28892;55.640;37.532;2023-03-25T09:24:33;97156.75;;;9.98;70.57
43298;BME280;28892;55.640;37.532;2023-03-25T09:27:33;97177.00;;;10.04;71.15
43298;BME280;28892;55.640;37.532;2023-03-25T09:30:14;97167.00;;;9.94;70.88
43298;BME280;28892;55.640;37.532;2023-03-25T09:32:41;97173.06;;;9.83;71.70
43298;BME280;28892;55.640;37.532;2023-03-25T09:35:09;97171.69;;;9.80;71.66
43298;BME280;28892;55.640;37.532;2023-03-25T09:37:35;97168.00;;;9.81;71.75
43298;BME280;28892;55.640;37.532;2023-03-25T09:40:05;97167.91;;;9.88;71.42
43298;BME280;28892;55.640;37.532;2023-03-25T09:42:51;97183.91;;;9.93;72.07
43298;BME280;28892;55.640;37.532;2023-03-25T09:45:44;97185.34;;;10.19;71.44
43298;BME280;28892;55.640;37.532;2023-03-25T09:50:52;97189.13;;;10.24;70.86
43298;BME280;28892;55.640;37.532;2023-03-25T09:54:23;97197.81;;;10.55;70.50
43298;BME280;28892;55.640;37.532;2023-03-25T09:57:07;97175.44;;;10.51;70.21
43298;BME280;28892;55.640;37.532;2023-03-25T09:59:49;97184.88;;;10.23;71.09
43298;BME280;28892;55.640;37.532;2023-03-25T10:02:41;97194.09;;;10.44;70.99
43298;BME280;28892;55.640;37.532;2023-03-25T10:05:12;97205.09;;;10.05;71.97
43298;BME280;28892;55.640;37.532;2023-03-25T10:07:52;97202.41;;;10.36;71.31
43298;BME280;28892;55.640;37.532;2023-03-25T10:21:40;97173.16;;;10.42;71.85
43298;BME280;28892;55.640;37.532;2023-03-25T10:24:22;97185.59;;;10.54;71.69
43298;BME280;28892;55.640;37.532;2023-03-25T10:27:14;97169.22;;;10.69;70.82
43298;BME280;28892;55.640;37.532;2023-03-25T10:32:45;97160.25;;;10.46;71.74
43298;BME280;28892;55.640;37.532;2023-03-25T10:38:36;97206.41;;;10.86;70.45
43298;BME280;28892;55.640;37.532;2023-03-25T10:44:29;97202.72;;;10.87;69.87
43298;BME280;28892;55.640;37.532;2023-03-25T10:47:06;97193.50;;;10.89;70.51
43298;BME280;28892;55.640;37.532;2023-03-25T10:50:02;97205.47;;;10.92;69.91
43298;BME280;28892;55.640;37.532;2023-03-25T10:52:29;97202.03;;;10.92;70.00
43298;BME280;28892;55.640;37.532;2023-03-25T10:54:58;97197.63;;;10.97;69.78
43298;BME280;28892;55.640;37.532;2023-03-25T10:57:28;97200.72;;;11.06;69.63
43298;BME280;28892;55.640;37.532;2023-03-25T11:00:12;97199.03;;;10.76;71.08
43298;BME280;28892;55.640;37.532;2023-03-25T11:02:46;97195.84;;;10.50;71.94
43298;BME280;28892;55.640;37.532;2023-03-25T11:05:16;97194.00;;;10.62;71.58
43298;BME280;28892;55.640;37.532;2023-03-25T11:07:47;97194.19;;;10.85;71.01
43298;BME280;28892;55.640;37.532;2023-03-25T11:10:29;97192.19;;;10.92;71.14
43298;BME280;28892;55.640;37.532;2023-03-25T11:13:00;97203.06;;;10.90;70.81
43298;BME280;28892;55.640;37.532;2023-03-25T11:15:33;97199.47;;;10.97;70.52
43298;BME280;28892;55.640;37.532;2023-03-25T11:20:50;97192.75;;;11.06;70.38
43298;BME280;28892;55.640;37.532;2023-03-25T11:23:36;97199.66;;;11.07;70.51
43298;BME280;28892;55.640;37.532;2023-03-25T11:26:19;97194.50;;;11.00;70.19
43298;BME280;28892;55.640;37.532;2023-03-25T11:29:00;97199.19;;;11.10;70.60
43298;BME280;28892;55.640;37.532;2023-03-25T11:31:28;97194.22;;;10.61;71.57
43298;BME280;28892;55.640;37.532;2023-03-25T11:34:21;97201.78;;;10.93;71.92
43298;BME280;28892;55.640;37.532;2023-03-25T11:37:21;97190.81;;;11.01;71.12
43298;BME280;28892;55.640;37.532;2023-03-25T11:39:51;97187.75;;;10.69;71.33
43298;BME280;28892;55.640;37.532;2023-03-25T11:42:34;97195.69;;;10.81;71.71
43298;BME280;28892;55.640;37.532;2023-03-25T11:45:04;97187.16;;;10.79;71.07
43298;BME280;28892;55.640;37.532;2023-03-25T11:47:45;97192.13;;;10.39;72.40
43298;BME280;28892;55.640;37.532;2023-03-25T11:50:32;97182.69;;;10.79;72.09
43298;BME280;28892;55.640;37.532;2023-03-25T11:53:01;97190.50;;;10.86;71.30
43298;BME280;28892;55.640;37.532;2023-03-25T11:55:48;97184.66;;;11.13;71.16
43298;BME280;28892;55.640;37.532;2023-03-25T11:58:42;97202.88;;;11.21;70.92
43298;BME280;28892;55.640;37.532;2023-03-25T12:04:23;97204.78;;;10.97;70.71
43298;BME280;28892;55.640;37.532;2023-03-25T12:07:00;97192.41;;;11.02;70.81
43298;BME280;28892;55.640;37.532;2023-03-25T12:09:29;97214.31;;;11.10;70.28
43298;BME280;28892;55.640;37.532;2023-03-25T12:18:02;97227.22;;;11.18;70.80
43298;BME280;28892;55.640;37.532;2023-03-25T12:32:35;97218.09;;;11.14;70.61
43298;BME280;28892;55.640;37.532;2023-03-25T12:41:13;97198.66;;;10.96;71.08
43298;BME280;28892;55.640;37.532;2023-03-25T13:07:27;97190.25;;;10.99;70.91
43298;BME280;28892;55.640;37.532;2023-03-25T13:13:40;97181.22;;;11.12;70.14
43298;BME280;28892;55.640;37.532;2023-03-25T13:16:11;97181.34;;;11.06;70.69
43298;BME280;28892;55.640;37.532;2023-03-25T13:19:01;97193.22;;;11.03;70.98
43298;BME280;28892;55.640;37.532;2023-03-25T13:21:34;97198.72;;;10.60;72.05
43298;BME280;28892;55.640;37.532;2023-03-25T13:30:33;97198.75;;;11.01;71.05
43298;BME280;28892;55.640;37.532;2023-03-25T13:33:15;97177.75;;;11.00;71.08
43298;BME280;28892;55.640;37.532;2023-03-25T13:35:53;97192.88;;;11.11;71.15
43298;BME280;28892;55.640;37.532;2023-03-25T13:38:39;97198.41;;;11.10;70.88
43298;BME280;28892;55.640;37.532;2023-03-25T13:41:30;97203.03;;;11.02;70.92
43298;BME280;28892;55.640;37.532;2023-03-25T13:47:29;97195.97;;;11.08;71.20
43298;BME280;28892;55.640;37.532;2023-03-25T13:50:13;97212.91;;;11.19;70.43
43298;BME280;28892;55.640;37.532;2023-03-25T13:53:00;97217.00;;;10.98;71.16
43298;BME280;28892;55.640;37.532;2023-03-25T13:55:50;97209.84;;;10.98;70.85
43298;BME280;28892;55.640;37.532;2023-03-25T14:13:47;97197.72;;;11.02;70.86
43298;BME280;28892;55.640;37.532;2023-03-25T14:16:18;97211.22;;;11.01;70.64
43298;BME280;28892;55.640;37.532;2023-03-25T14:19:01;97208.06;;;11.16;70.39
43298;BME280;28892;55.640;37.532;2023-03-25T14:24:36;97225.28;;;11.42;69.62
43298;BME280;28892;55.640;37.532;2023-03-25T14:41:04;97211.50;;;11.28;70.11
43298;BME280;28892;55.640;37.532;2023-03-25T14:44:43;97215.97;;;11.40;69.43
43298;BME280;28892;55.640;37.532;2023-03-25T14:47:52;97209.69;;;11.17;69.47
43298;BME280;28892;55.640;37.532;2023-03-25T14:58:03;97230.25;;;11.10;70.00
43298;BME280;28892;55.640;37.532;2023-03-25T15:00:44;97221.31;;;10.63;71.66
43298;BME280;28892;55.640;37.532;2023-03-25T15:03:49;97224.84;;;10.81;71.06
43298;BME280;28892;55.640;37.532;2023-03-25T15:06:41;97225.66;;;10.93;70.97
43298;BME280;28892;55.640;37.532;2023-03-25T15:09:10;97229.31;;;11.04;70.48
43298;BME280;28892;55.640;37.532;2023-03-25T15:12:02;97226.53;;;11.23;70.06
43298;BME280;28892;55.640;37.532;2023-03-25T15:14:41;97233.09;;;11.20;70.08
43298;BME280;28892;55.640;37.532;2023-03-25T15:17:11;97225.41;;;11.07;69.76
43298;BME280;28892;55.640;37.532;2023-03-25T15:22:41;97245.03;;;10.94;70.65
43298;BME280;28892;55.640;37.532;2023-03-25T15:25:17;97239.28;;;10.85;70.96
43298;BME280;28892;55.640;37.532;2023-03-25T15:28:11;97246.84;;;11.05;70.79
43298;BME280;28892;55.640;37.532;2023-03-25T15:31:15;97240.28;;;11.08;70.62
43298;BME280;28892;55.640;37.532;2023-03-25T15:40:47;97263.34;;;11.07;70.17
43298;BME280;28892;55.640;37.532;2023-03-25T15:49:29;97249.06;;;10.96;70.48
43298;BME280;28892;55.640;37.532;2023-03-25T15:54:54;97253.34;;;10.97;69.83
43298;BME280;28892;55.640;37.532;2023-03-25T15:57:39;97258.72;;;11.02;70.39
43298;BME280;28892;55.640;37.532;2023-03-25T16:00:26;97257.59;;;10.86;70.50
43298;BME280;28892;55.640;37.532;2023-03-25T16:03:07;97259.56;;;10.67;71.67
43298;BME280;28892;55.640;37.532;2023-03-25T16:05:38;97259.69;;;10.60;71.18
43298;BME280;28892;55.640;37.532;2023-03-25T16:08:14;97261.09;;;10.63;71.18
43298;BME280;28892;55.640;37.532;2023-03-25T16:10:41;97273.53;;;10.74;70.77
43298;BME280;28892;55.640;37.532;2023-03-25T16:13:14;97264.88;;;10.67;71.04
43298;BME280;28892;55.640;37.532;2023-03-25T16:15:51;97275.59;;;10.60;71.39
43298;BME280;28892;55.640;37.532;2023-03-25T16:18:20;97283.34;;;10.62;71.47
43298;BME280;28892;55.640;37.532;2023-03-25T16:20:53;97270.63;;;10.52;72.13
43298;BME280;28892;55.640;37.532;2023-03-25T16:23:34;97278.41;;;10.35;72.43
43298;BME280;28892;55.640;37.532;2023-03-25T16:26:01;97266.22;;;10.34;72.58
43298;BME280;28892;55.640;37.532;2023-03-25T16:28:34;97277.44;;;10.48;72.39
43298;BME280;28892;55.640;37.532;2023-03-25T16:31:26;97290.13;;;10.70;71.51
43298;BME280;28892;55.640;37.532;2023-03-25T16:34:05;97286.56;;;10.64;71.42
43298;BME280;28892;55.640;37.532;2023-03-25T16:39:24;97283.44;;;10.67;71.57
43298;BME280;28892;55.640;37.532;2023-03-25T16:42:02;97296.00;;;10.48;72.16
43298;BME280;28892;55.640;37.532;2023-03-25T16:44:33;97295.41;;;10.46;72.43
43298;BME280;28892;55.640;37.532;2023-03-25T16:48:06;97283.78;;;10.71;71.86
43298;BME280;28892;55.640;37.532;2023-03-25T16:51:28;97307.31;;;10.67;71.81